Aérodrome :
LOGIN :

S'inscrire | Disclaimer

   EN    FR    IT 

 










Légende :    VFR   VFR Marginal   IFR   IFR Intensif   IFR Très Intensif
Visi : 
Plafond : 
>= 8 km
>= 3000ft
5 à 8 km
1000 à 3000 ft
1500m à 5 km
500 à 1000 ft
800 à 1500m
200 à 500 ft
< 800m
< 200 ft
Symboles :   Orages  Brouillard  Fortes neiges  Fortes précipitations  Vent > 20 kt
SIGMETs :   Divers  Orages  Givrage  Turbulence  Onde Orograph.  Cendres Volcan.






- Altitude de l'aérodrome : 13 ft
- Code IATA : OST


EBOS - Oostend bruges Int.

DERNIER METAR :
  • 281220Z 19014KT 9999 SCT038 BKN048 06/01 Q1012 TEMPO 18018G28KT

METARs EXPIRÉS :
  • 281150Z 19013KT 9999 SCT039 06/01 Q1013 TEMPO 18018G28KT
  • 281120Z 18013KT 150V210 CAVOK 05/01 Q1013 TEMPO 18015G25KT
  • 281050Z 17013KT CAVOK 05/00 Q1014 NOSIG
  • 281020Z 17011KT CAVOK 05/01 Q1014 NOSIG
  • 280950Z 18010KT CAVOK 05/00 Q1015 NOSIG

TAF TAF EBOS
Valide du 28 à 12h jusqu'au 29 à 18h UTC


281109Z 2812/2918 18018KT 9999 FEW020
BECMG 2812/2814 18020G36KT 4000 -RADZ SCT008 BKN013
TEMPO 2813/2822 BKN008
BECMG 2823/2901 FEW015 SCT030
TEMPO 2907/2912 19025G42KT 4000 RA SHRA BKN014 SCT020CB
PROB30
TEMPO 2913/2918 4500 SHRA



MET'MAP, la Météo Aéronautique d'un coup d'oeil ! - Copyright ORBIFLY Décembre 2007 - Disclaimer

ORBIFLY MET'MAP TEAM :

Programmation & Développement : Alexandra Zaïnal
Sur une idée originale de : Baudouin d'Aumeries
Assistance à la programmation : Marc-Olivier Méhu
Soutien technique & logistique : Manuel Goepfert

Contact : metmap@orbifly.com




SOURCES & CREDITS :

   NOAA